createdAt,value
2017-11-17T00:00:08.160Z,8.70
2017-11-17T00:02:36.001Z,8.70
2017-11-17T00:05:03.429Z,8.70
2017-11-17T00:07:30.853Z,8.70
2017-11-17T00:09:58.290Z,8.70
2017-11-17T00:12:26.102Z,8.70
2017-11-17T00:14:53.542Z,8.70
2017-11-17T00:17:21.979Z,8.60
2017-11-17T00:19:49.793Z,8.40
2017-11-17T00:22:17.213Z,8.40
2017-11-17T00:24:44.898Z,8.40
2017-11-17T00:27:12.321Z,8.40
2017-11-17T00:29:40.140Z,8.30
2017-11-17T00:32:07.615Z,8.30
2017-11-17T00:34:35.031Z,8.40
2017-11-17T00:37:02.456Z,8.40
2017-11-17T00:39:30.140Z,8.30
2017-11-17T00:41:57.568Z,8.30
2017-11-17T00:44:25.377Z,8.30
2017-11-17T00:46:53.013Z,8.30
2017-11-17T00:49:20.632Z,8.20
2017-11-17T00:51:48.446Z,8.10
2017-11-17T00:54:15.891Z,8.10
2017-11-17T00:56:43.318Z,8.10
2017-11-17T00:59:10.823Z,8.00
2017-11-17T01:01:38.264Z,8.00
2017-11-17T01:04:05.685Z,8.00
2017-11-17T01:06:33.109Z,7.90
2017-11-17T01:09:00.536Z,7.90
2017-11-17T01:11:27.957Z,7.80
2017-11-17T01:13:55.386Z,7.80
2017-11-17T01:16:23.209Z,7.70
2017-11-17T01:18:50.798Z,7.70
2017-11-17T01:21:18.241Z,7.70
2017-11-17T01:23:45.680Z,7.60
2017-11-17T01:26:13.111Z,7.60
2017-11-17T01:28:40.554Z,7.50
2017-11-17T01:31:07.973Z,7.40
2017-11-17T01:33:35.390Z,7.40
2017-11-17T01:36:02.849Z,7.40
2017-11-17T01:38:30.277Z,7.30
2017-11-17T01:40:57.690Z,7.30
2017-11-17T01:43:25.130Z,7.20
2017-11-17T01:45:52.558Z,7.20
2017-11-17T01:48:19.973Z,7.20
2017-11-17T01:50:47.822Z,7.20
2017-11-17T01:53:15.238Z,7.20
2017-11-17T01:55:42.666Z,7.10
2017-11-17T01:58:10.109Z,7.10
2017-11-17T02:00:37.532Z,7.20
2017-11-17T02:03:04.958Z,7.10
2017-11-17T02:05:32.397Z,7.10
2017-11-17T02:07:59.819Z,7.10
2017-11-17T02:10:27.625Z,7.00
2017-11-17T02:12:55.077Z,7.00
2017-11-17T02:15:22.499Z,7.00
2017-11-17T02:17:50.317Z,7.00
2017-11-17T02:20:17.767Z,7.00
2017-11-17T02:22:45.195Z,7.00
2017-11-17T02:25:12.634Z,7.00
2017-11-17T02:27:40.066Z,6.90
2017-11-17T02:30:07.887Z,6.90
2017-11-17T02:32:35.313Z,6.90
2017-11-17T02:35:02.767Z,6.90
2017-11-17T02:37:30.193Z,6.80
2017-11-17T02:39:58.015Z,6.80
2017-11-17T02:42:25.464Z,6.80
2017-11-17T02:44:52.882Z,6.80
2017-11-17T02:47:20.604Z,6.80
2017-11-17T02:49:48.306Z,6.70
2017-11-17T02:52:15.755Z,6.70
2017-11-17T02:54:43.180Z,6.60
2017-11-17T02:57:10.627Z,6.60
2017-11-17T02:59:38.054Z,6.60
2017-11-17T03:02:05.494Z,6.50
2017-11-17T03:04:32.927Z,6.50
2017-11-17T03:07:00.360Z,6.50
2017-11-17T03:09:27.778Z,6.50
2017-11-17T03:11:55.228Z,6.40
2017-11-17T03:14:22.629Z,6.40
2017-11-17T03:16:50.449Z,6.40
2017-11-17T03:19:17.985Z,6.30
2017-11-17T03:21:45.403Z,6.30
2017-11-17T03:24:13.216Z,6.20
2017-11-17T03:26:40.645Z,6.20
2017-11-17T03:29:08.065Z,6.20
2017-11-17T03:31:35.929Z,6.10
2017-11-17T03:34:03.358Z,6.10
2017-11-17T03:36:30.790Z,6.10
2017-11-17T03:38:58.237Z,6.10
2017-11-17T03:41:25.684Z,6.10
2017-11-17T03:43:53.124Z,6.10
2017-11-17T03:46:28.137Z,6.00
2017-11-17T03:48:56.005Z,5.90
2017-11-17T03:51:23.425Z,5.90
2017-11-17T03:53:51.154Z,5.90
2017-11-17T03:56:18.592Z,5.90
2017-11-17T03:58:46.410Z,5.80
2017-11-17T04:01:13.858Z,5.80
2017-11-17T04:03:41.291Z,5.80
2017-11-17T04:06:08.717Z,5.80
2017-11-17T04:08:36.250Z,5.80
2017-11-17T04:11:03.669Z,5.70
2017-11-17T04:13:31.104Z,5.70
2017-11-17T04:15:58.529Z,5.70
2017-11-17T04:18:26.346Z,5.60
2017-11-17T04:20:53.797Z,5.70
2017-11-17T04:23:21.229Z,5.60
2017-11-17T04:25:48.651Z,5.70
2017-11-17T04:28:16.499Z,5.60
2017-11-17T04:30:43.929Z,5.50
2017-11-17T04:33:11.358Z,5.50
2017-11-17T04:35:39.045Z,5.60
2017-11-17T04:38:06.473Z,5.50
2017-11-17T04:40:33.896Z,5.50
2017-11-17T04:43:01.354Z,5.50
2017-11-17T04:45:29.177Z,5.50
2017-11-17T04:47:56.614Z,5.40
2017-11-17T04:50:24.216Z,5.40
2017-11-17T04:52:51.644Z,5.50
2017-11-17T04:55:19.061Z,5.50
2017-11-17T04:57:46.516Z,5.50
2017-11-17T05:00:13.946Z,5.40
2017-11-17T05:02:41.776Z,5.40
2017-11-17T05:05:09.246Z,5.40
2017-11-17T05:07:36.691Z,5.30
2017-11-17T05:10:04.123Z,5.30
2017-11-17T05:12:31.576Z,5.30
2017-11-17T05:14:59.002Z,5.30
2017-11-17T05:17:26.824Z,5.20
2017-11-17T05:19:54.319Z,5.20
2017-11-17T05:22:22.152Z,5.10
2017-11-17T05:24:49.592Z,5.20
2017-11-17T05:27:16.993Z,5.20
2017-11-17T05:29:44.438Z,5.20
2017-11-17T05:32:12.274Z,5.10
2017-11-17T05:34:39.717Z,5.20
2017-11-17T05:37:07.125Z,5.10
2017-11-17T05:39:34.709Z,5.10
2017-11-17T05:42:02.126Z,5.00
2017-11-17T05:44:29.969Z,4.90
2017-11-17T05:46:57.402Z,4.90
2017-11-17T05:49:25.224Z,4.90
2017-11-17T05:51:53.065Z,5.00
2017-11-17T05:54:20.481Z,5.00
2017-11-17T05:56:47.920Z,5.00
2017-11-17T05:59:15.450Z,5.00
2017-11-17T06:01:42.986Z,5.00
2017-11-17T06:04:10.814Z,4.90
2017-11-17T06:06:38.234Z,4.90
2017-11-17T06:09:05.733Z,4.90
2017-11-17T06:11:33.166Z,4.80
2017-11-17T06:14:00.929Z,4.80
2017-11-17T06:16:28.361Z,4.80
2017-11-17T06:18:55.786Z,4.80
2017-11-17T06:21:23.996Z,4.80
2017-11-17T06:23:52.306Z,4.80
2017-11-17T06:26:19.735Z,4.80
2017-11-17T06:28:47.174Z,4.70
2017-11-17T06:31:14.599Z,4.70
2017-11-17T06:33:42.421Z,4.70
2017-11-17T06:36:09.863Z,4.70
2017-11-17T06:38:37.294Z,4.60
2017-11-17T06:41:04.726Z,4.60
2017-11-17T06:43:32.254Z,4.60
2017-11-17T06:45:59.675Z,4.60
2017-11-17T06:48:27.112Z,4.70
2017-11-17T06:50:54.950Z,4.60
2017-11-17T06:53:22.389Z,4.60
2017-11-17T06:55:49.813Z,4.60
2017-11-17T06:58:17.243Z,4.60
2017-11-17T07:00:44.663Z,4.60
2017-11-17T07:03:12.102Z,4.60
2017-11-17T07:05:39.530Z,4.60
2017-11-17T07:08:06.966Z,4.60
2017-11-17T07:10:34.764Z,4.60
2017-11-17T07:13:02.183Z,4.60
2017-11-17T07:15:29.610Z,4.70
2017-11-17T07:17:57.454Z,4.80
2017-11-17T07:20:24.882Z,4.80
2017-11-17T07:22:52.311Z,4.80
2017-11-17T07:25:19.765Z,4.90
2017-11-17T07:27:47.206Z,4.90
2017-11-17T07:30:15.023Z,4.90
2017-11-17T07:32:42.477Z,5.00
2017-11-17T07:35:09.897Z,5.00
2017-11-17T07:37:37.583Z,5.10
2017-11-17T07:40:05.956Z,5.10
2017-11-17T07:42:33.387Z,5.10
2017-11-17T07:45:00.817Z,5.20
2017-11-17T07:47:28.650Z,5.20
2017-11-17T07:49:57.235Z,5.20
2017-11-17T07:52:24.658Z,5.30
2017-11-17T07:54:59.532Z,5.40
2017-11-17T07:57:26.958Z,5.50
2017-11-17T07:59:54.428Z,5.70
2017-11-17T08:02:21.863Z,5.80
2017-11-17T08:04:49.285Z,6.00
2017-11-17T08:07:16.741Z,6.30
2017-11-17T08:09:44.162Z,6.50
2017-11-17T08:12:11.603Z,6.50
2017-11-17T08:14:39.051Z,6.80
2017-11-17T08:17:18.381Z,6.90
2017-11-17T08:19:45.848Z,6.80
2017-11-17T08:22:13.426Z,6.90
2017-11-17T08:24:41.249Z,7.10
2017-11-17T08:27:08.677Z,7.10
2017-11-17T08:29:36.105Z,6.90
2017-11-17T08:32:03.928Z,7.00
2017-11-17T08:34:31.346Z,7.00
2017-11-17T08:36:58.773Z,7.40
2017-11-17T08:39:26.598Z,7.40
2017-11-17T08:41:54.025Z,7.30
2017-11-17T08:44:21.500Z,7.60
2017-11-17T08:46:48.905Z,8.10
2017-11-17T08:49:16.729Z,7.80
2017-11-17T08:51:44.214Z,7.80
2017-11-17T08:54:11.596Z,7.90
2017-11-17T08:56:39.025Z,8.20
2017-11-17T08:59:06.867Z,8.40
2017-11-17T09:01:34.286Z,8.40
2017-11-17T09:04:01.706Z,8.20
2017-11-17T09:06:29.544Z,8.50
2017-11-17T09:08:56.965Z,8.50
2017-11-17T09:11:24.388Z,8.70
2017-11-17T09:13:52.204Z,8.70
2017-11-17T09:16:19.613Z,9.10
2017-11-17T09:18:47.426Z,8.80
2017-11-17T09:21:14.879Z,8.80
2017-11-17T09:23:42.294Z,8.90
2017-11-17T09:26:09.716Z,9.20
2017-11-17T09:28:37.638Z,9.40
2017-11-17T09:31:05.066Z,9.40
2017-11-17T09:33:32.485Z,9.00
2017-11-17T09:35:59.930Z,9.40
2017-11-17T09:38:27.362Z,9.70
2017-11-17T09:40:54.798Z,9.90
2017-11-17T09:43:22.221Z,10.40
2017-11-17T09:45:50.045Z,10.20
2017-11-17T09:48:17.505Z,10.20
2017-11-17T09:50:44.931Z,10.00
2017-11-17T09:53:12.359Z,10.30
2017-11-17T09:55:40.462Z,10.10
2017-11-17T09:58:07.889Z,10.10
2017-11-17T10:00:35.323Z,10.40
2017-11-17T10:03:03.343Z,11.30
2017-11-17T10:05:30.768Z,11.30
2017-11-17T10:07:58.189Z,11.90
2017-11-17T10:10:25.630Z,11.40
2017-11-17T10:12:53.057Z,11.20
2017-11-17T10:15:20.481Z,11.50
2017-11-17T10:17:47.930Z,11.80
2017-11-17T10:20:15.358Z,12.60
2017-11-17T10:22:42.788Z,13.70
2017-11-17T10:25:10.242Z,14.50
2017-11-17T10:27:37.675Z,16.00
2017-11-17T10:30:05.102Z,16.20
2017-11-17T10:32:32.551Z,16.90
2017-11-17T10:35:00.368Z,15.70
2017-11-17T10:37:27.803Z,15.70
2017-11-17T10:39:55.256Z,14.30
2017-11-17T10:42:22.674Z,15.70
2017-11-17T10:44:50.489Z,14.90
2017-11-17T10:47:19.062Z,14.90
2017-11-17T10:49:46.489Z,15.30
2017-11-17T10:52:13.913Z,15.20
2017-11-17T10:54:41.351Z,15.50
2017-11-17T10:57:08.770Z,16.10
2017-11-17T10:59:38.603Z,15.80
2017-11-17T11:02:06.040Z,16.70
2017-11-17T11:04:33.470Z,16.20
2017-11-17T11:07:00.898Z,18.50
2017-11-17T11:09:28.514Z,19.30
2017-11-17T11:11:55.952Z,15.60
2017-11-17T11:14:23.378Z,16.10
2017-11-17T11:16:51.201Z,16.60
2017-11-17T11:19:18.646Z,16.60
2017-11-17T11:21:46.068Z,18.00
2017-11-17T11:24:13.513Z,16.70
2017-11-17T11:26:41.344Z,17.10
2017-11-17T11:29:08.769Z,17.10
2017-11-17T11:31:36.200Z,16.70
2017-11-17T11:34:04.499Z,16.60
2017-11-17T11:36:31.927Z,15.80
2017-11-17T11:38:59.361Z,17.00
2017-11-17T11:41:27.231Z,16.00
2017-11-17T11:43:55.050Z,16.00
2017-11-17T11:46:22.474Z,15.90
2017-11-17T11:48:49.922Z,14.80
2017-11-17T11:51:17.354Z,13.30
2017-11-17T11:53:45.166Z,13.10
2017-11-17T11:56:12.618Z,13.10
2017-11-17T11:58:40.042Z,12.60
2017-11-17T12:01:07.468Z,12.70
2017-11-17T12:03:34.907Z,12.80
2017-11-17T12:06:02.329Z,12.00
2017-11-17T12:08:29.760Z,12.10
2017-11-17T12:10:57.213Z,12.60
2017-11-17T12:13:24.642Z,13.60
2017-11-17T12:15:52.062Z,12.60
2017-11-17T12:18:19.501Z,13.90
2017-11-17T12:20:46.935Z,16.10
2017-11-17T12:23:14.746Z,15.20
2017-11-17T12:25:42.281Z,15.20
2017-11-17T12:28:09.701Z,13.50
2017-11-17T12:30:37.521Z,13.10
2017-11-17T12:33:05.167Z,13.10
2017-11-17T12:35:32.586Z,13.70
2017-11-17T12:38:00.021Z,13.90
2017-11-17T12:40:27.859Z,13.20
2017-11-17T12:42:55.284Z,13.30
2017-11-17T12:45:22.714Z,13.20
2017-11-17T12:47:50.145Z,13.10
2017-11-17T12:50:17.966Z,14.90
2017-11-17T12:52:45.408Z,14.90
2017-11-17T12:55:12.828Z,14.70
2017-11-17T12:57:40.648Z,12.30
2017-11-17T13:00:08.105Z,12.30
2017-11-17T13:02:35.516Z,11.50
2017-11-17T13:05:02.942Z,11.40
2017-11-17T13:07:31.586Z,11.30
2017-11-17T13:09:59.011Z,11.50
2017-11-17T13:12:26.425Z,12.10
2017-11-17T13:14:53.964Z,12.70
2017-11-17T13:17:21.394Z,13.00
2017-11-17T13:19:48.825Z,13.10
2017-11-17T13:22:16.270Z,14.60
2017-11-17T13:24:44.104Z,13.50
2017-11-17T13:27:11.526Z,13.50
2017-11-17T13:29:39.779Z,14.00
2017-11-17T13:32:07.202Z,13.10
2017-11-17T13:34:35.029Z,13.30
2017-11-17T13:37:02.471Z,13.30
2017-11-17T13:39:29.906Z,13.70
2017-11-17T13:41:57.329Z,14.00
2017-11-17T13:44:25.452Z,12.70
2017-11-17T13:46:52.879Z,12.70
2017-11-17T13:49:20.301Z,12.70
2017-11-17T13:51:47.737Z,12.80
2017-11-17T13:54:15.165Z,12.70
2017-11-17T13:56:42.836Z,13.20
2017-11-17T13:59:10.259Z,12.30
2017-11-17T14:01:37.685Z,12.70
2017-11-17T14:04:05.301Z,12.50
2017-11-17T14:06:32.731Z,12.30
2017-11-17T14:09:00.146Z,12.30
2017-11-17T14:11:27.678Z,12.20
2017-11-17T14:13:55.111Z,11.60
2017-11-17T14:16:22.538Z,12.00
2017-11-17T14:18:50.002Z,11.50
2017-11-17T14:21:17.423Z,11.60
2017-11-17T14:23:44.862Z,11.40
2017-11-17T14:26:12.502Z,11.20
2017-11-17T14:28:39.927Z,11.50
2017-11-17T14:31:07.345Z,11.30
2017-11-17T14:33:34.786Z,11.10
2017-11-17T14:36:02.450Z,11.20
2017-11-17T14:38:29.874Z,11.20
2017-11-17T14:40:57.540Z,11.10
2017-11-17T14:43:24.969Z,10.90
2017-11-17T14:45:52.389Z,10.90
2017-11-17T14:48:19.822Z,10.50
2017-11-17T14:50:47.249Z,10.40
2017-11-17T14:53:14.681Z,10.40
2017-11-17T14:55:42.140Z,10.30
2017-11-17T14:58:09.561Z,10.20
2017-11-17T15:00:37.393Z,10.00
2017-11-17T15:03:04.824Z,10.00
2017-11-17T15:05:32.237Z,9.90
2017-11-17T15:08:00.358Z,9.70
2017-11-17T15:10:27.782Z,9.70
2017-11-17T15:12:55.208Z,9.60
2017-11-17T15:15:22.661Z,9.50
2017-11-17T15:17:50.078Z,9.40
2017-11-17T15:20:17.493Z,9.30
2017-11-17T15:22:45.336Z,9.20
2017-11-17T15:25:12.756Z,9.20
2017-11-17T15:27:40.174Z,9.10
2017-11-17T15:30:07.629Z,9.10
2017-11-17T15:32:35.056Z,9.00
2017-11-17T15:35:02.462Z,8.90
2017-11-17T15:37:30.786Z,8.90
2017-11-17T15:39:58.204Z,8.80
2017-11-17T15:42:25.629Z,8.70
2017-11-17T15:44:53.048Z,8.80
2017-11-17T15:47:20.469Z,8.70
2017-11-17T15:49:47.919Z,8.60
2017-11-17T15:52:15.341Z,8.60
2017-11-17T15:54:42.761Z,8.50
2017-11-17T15:57:10.205Z,8.50
2017-11-17T15:59:37.635Z,8.50
2017-11-17T16:02:05.046Z,8.40
2017-11-17T16:04:32.974Z,8.30
2017-11-17T16:07:00.399Z,8.40
2017-11-17T16:09:27.822Z,8.40
2017-11-17T16:11:55.650Z,8.20
2017-11-17T16:14:23.072Z,8.20
2017-11-17T16:16:50.502Z,8.10
2017-11-17T16:19:18.326Z,8.10
2017-11-17T16:21:45.751Z,8.10
2017-11-17T16:24:13.173Z,8.10
2017-11-17T16:26:40.602Z,8.10
2017-11-17T16:29:08.027Z,8.00
2017-11-17T16:31:35.469Z,8.00
2017-11-17T16:34:02.906Z,7.80
2017-11-17T16:36:30.332Z,7.80
2017-11-17T16:38:58.150Z,7.70
2017-11-17T16:41:25.801Z,7.80
2017-11-17T16:43:54.305Z,7.70
2017-11-17T16:46:21.728Z,7.70
2017-11-17T16:48:49.150Z,7.70
2017-11-17T16:51:16.969Z,7.60
2017-11-17T16:53:44.613Z,7.60
2017-11-17T16:56:12.046Z,7.60
2017-11-17T16:58:39.461Z,7.50
2017-11-17T17:01:07.182Z,7.50
2017-11-17T17:03:34.597Z,7.50
2017-11-17T17:06:02.409Z,7.40
2017-11-17T17:08:29.862Z,7.40
2017-11-17T17:10:57.282Z,7.40
2017-11-17T17:13:24.704Z,7.40
2017-11-17T17:15:52.956Z,7.40
2017-11-17T17:18:20.387Z,7.40
2017-11-17T17:20:47.800Z,7.40
2017-11-17T17:23:15.828Z,7.40
2017-11-17T17:25:43.241Z,7.40
2017-11-17T17:28:10.677Z,7.40
2017-11-17T17:30:38.519Z,7.30
2017-11-17T17:33:05.942Z,7.40
2017-11-17T17:35:33.366Z,7.40
2017-11-17T17:38:01.070Z,7.30
2017-11-17T17:40:28.493Z,7.30
2017-11-17T17:42:55.910Z,7.30
2017-11-17T17:45:23.759Z,7.30
2017-11-17T17:47:51.190Z,7.30
2017-11-17T17:50:18.622Z,7.30
2017-11-17T17:52:46.049Z,7.30
2017-11-17T17:55:13.465Z,7.20
2017-11-17T17:57:40.901Z,7.20
2017-11-17T18:00:08.335Z,7.20
2017-11-17T18:02:35.762Z,7.20
2017-11-17T18:05:03.583Z,7.20
2017-11-17T18:07:31.028Z,7.20
2017-11-17T18:09:58.449Z,7.30
2017-11-17T18:12:25.874Z,7.20
2017-11-17T18:14:53.322Z,7.20
2017-11-17T18:17:20.745Z,7.20
2017-11-17T18:19:48.166Z,7.20
2017-11-17T18:22:16.380Z,7.10
2017-11-17T18:24:43.817Z,7.10
2017-11-17T18:27:11.253Z,7.10
2017-11-17T18:29:39.208Z,7.20
2017-11-17T18:32:06.616Z,7.20
2017-11-17T18:34:34.047Z,7.20
2017-11-17T18:37:01.897Z,7.20
2017-11-17T18:39:29.713Z,7.20
2017-11-17T18:41:57.239Z,7.20
2017-11-17T18:44:24.680Z,7.20
2017-11-17T18:46:52.105Z,7.20
2017-11-17T18:49:19.548Z,7.20
2017-11-17T18:51:47.023Z,7.20
2017-11-17T18:54:14.403Z,7.20
2017-11-17T18:56:41.825Z,7.20
2017-11-17T18:59:09.666Z,7.20
2017-11-17T19:01:37.088Z,7.20
2017-11-17T19:04:04.560Z,7.30
2017-11-17T19:06:32.270Z,7.30
2017-11-17T19:08:59.637Z,7.30
2017-11-17T19:11:27.046Z,7.30
2017-11-17T19:13:54.551Z,7.30
2017-11-17T19:16:21.961Z,7.40
2017-11-17T19:18:49.438Z,7.30
2017-11-17T19:21:17.275Z,7.30
2017-11-17T19:23:44.718Z,7.40
2017-11-17T19:26:12.143Z,7.30
2017-11-17T19:28:39.849Z,7.30
2017-11-17T19:31:07.279Z,7.30
2017-11-17T19:33:34.689Z,7.30
2017-11-17T19:36:02.126Z,7.20
2017-11-17T19:38:29.949Z,7.20
2017-11-17T19:40:57.641Z,7.20
2017-11-17T19:43:25.365Z,7.20
2017-11-17T19:45:52.789Z,7.10
2017-11-17T19:48:20.223Z,7.20
2017-11-17T19:50:48.080Z,7.10
2017-11-17T19:53:15.501Z,7.10
2017-11-17T19:55:42.925Z,7.10
2017-11-17T19:58:10.361Z,7.10
2017-11-17T20:00:38.191Z,7.10
2017-11-17T20:03:05.617Z,7.10
2017-11-17T20:05:33.065Z,7.10
2017-11-17T20:08:00.495Z,7.10
2017-11-17T20:10:27.932Z,7.10
2017-11-17T20:12:55.749Z,7.10
2017-11-17T20:15:23.176Z,7.10
2017-11-17T20:17:50.641Z,7.10
2017-11-17T20:20:18.058Z,7.10
2017-11-17T20:22:45.888Z,7.10
2017-11-17T20:25:14.012Z,7.10
2017-11-17T20:27:41.450Z,7.10
2017-11-17T20:30:09.314Z,7.10
2017-11-17T20:32:37.182Z,7.10
2017-11-17T20:35:04.580Z,7.10
2017-11-17T20:37:32.009Z,7.10
2017-11-17T20:39:59.442Z,7.10
2017-11-17T20:42:27.255Z,7.10
2017-11-17T20:44:54.687Z,7.10
2017-11-17T20:47:22.375Z,7.10
2017-11-17T20:49:49.796Z,7.00
2017-11-17T20:52:18.418Z,7.00
2017-11-17T20:54:46.062Z,7.00
2017-11-17T20:57:13.477Z,7.00
2017-11-17T20:59:41.305Z,7.10
2017-11-17T21:02:09.050Z,7.10
2017-11-17T21:04:36.485Z,7.00
2017-11-17T21:07:03.916Z,7.00
2017-11-17T21:09:32.027Z,7.00
2017-11-17T21:11:59.454Z,7.00
2017-11-17T21:14:26.890Z,7.00
2017-11-17T21:16:54.719Z,7.00
2017-11-17T21:19:22.145Z,7.00
2017-11-17T21:21:49.585Z,7.00
2017-11-17T21:24:17.062Z,7.00
2017-11-17T21:26:44.716Z,6.90
2017-11-17T21:29:12.164Z,6.90
2017-11-17T21:31:39.690Z,7.00
2017-11-17T21:34:07.517Z,6.90
2017-11-17T21:36:34.955Z,7.00
2017-11-17T21:39:02.408Z,6.90
2017-11-17T21:41:29.841Z,7.00
2017-11-17T21:43:59.779Z,7.00
2017-11-17T21:46:27.235Z,7.00
2017-11-17T21:48:54.658Z,7.00
2017-11-17T21:51:22.281Z,6.90
2017-11-17T21:53:49.723Z,6.90
2017-11-17T21:56:17.173Z,6.90
2017-11-17T21:58:44.618Z,6.80
2017-11-17T22:01:12.079Z,6.70
2017-11-17T22:03:39.522Z,6.70
2017-11-17T22:06:06.950Z,6.70
2017-11-17T22:08:34.381Z,6.70
2017-11-17T22:11:02.218Z,6.80
2017-11-17T22:13:29.712Z,6.80
2017-11-17T22:15:58.576Z,6.80
2017-11-17T22:18:26.610Z,6.80
2017-11-17T22:20:54.067Z,6.80
2017-11-17T22:23:21.838Z,6.80
2017-11-17T22:25:49.820Z,6.80
2017-11-17T22:28:17.253Z,6.70
2017-11-17T22:30:44.693Z,6.80
2017-11-17T22:33:12.499Z,6.70
2017-11-17T22:35:40.149Z,6.80
2017-11-17T22:38:07.571Z,6.80
2017-11-17T22:40:34.998Z,6.80
2017-11-17T22:43:02.466Z,6.80
2017-11-17T22:45:29.898Z,6.80
2017-11-17T22:47:57.722Z,6.80
2017-11-17T22:50:25.167Z,6.80
2017-11-17T22:52:52.594Z,6.80
2017-11-17T22:55:20.035Z,6.80
2017-11-17T22:57:48.011Z,6.80
2017-11-17T23:00:15.434Z,6.80
2017-11-17T23:02:43.301Z,6.70
2017-11-17T23:05:10.715Z,6.70
2017-11-17T23:07:38.141Z,6.70
2017-11-17T23:10:06.437Z,6.70
2017-11-17T23:12:33.870Z,6.70
2017-11-17T23:15:01.298Z,6.70
2017-11-17T23:17:29.142Z,6.70
2017-11-17T23:19:56.562Z,6.70
2017-11-17T23:22:23.990Z,6.70
2017-11-17T23:24:51.536Z,6.70
2017-11-17T23:27:19.410Z,6.70
2017-11-17T23:29:47.219Z,6.70
2017-11-17T23:32:14.743Z,6.70
2017-11-17T23:34:42.181Z,6.70
2017-11-17T23:37:09.611Z,6.70
2017-11-17T23:39:37.458Z,6.60
2017-11-17T23:42:04.951Z,6.60
2017-11-17T23:44:32.780Z,6.80
2017-11-17T23:47:00.236Z,6.80
2017-11-17T23:49:28.476Z,6.70
2017-11-17T23:51:55.986Z,6.80
2017-11-17T23:54:24.687Z,6.80
2017-11-17T23:56:52.126Z,6.70
2017-11-17T23:59:19.980Z,6.70
